Josephine Anne — WDD9858 — position and weather

sailwx.info

Track history (hours):
 
Tides and Currents Weather Stations Pressure Air Temp Water Temp Dewpoint Dewpoint Depression Visibility Wind Speed Wind Dir Waves Ship Positions

Josephine Anne

Owner: E.N. Bisso & Son, Inc., Metairie, LA. More information available from US FCC via Universal Licensing System and Coast Guard Vessel Documentation Center.

Last reported at 2014-Oct-25 16:32 UTC. Time now 2014-Oct-25 23:39 UTC.
Position N 29°56' W 090°04'.

Length 29 m; draft 4.3 m.

Type: Tug. MMSI: 367317270.

Date/timePositionNaut miles runAvg speedWind from/ knotsBaromVisibWave heightAir tempDewpointWater temp
2014-Oct-25 16:32N 29°56' W 090°04'1 0.7
2014-Oct-25 14:33N 29°55' W 090°05'0 0.0
2014-Oct-25 13:33N 29°55' W 090°05'0 0.0
2014-Oct-25 12:33N 29°55' W 090°05'0 0.0
2014-Oct-25 11:32N 29°55' W 090°05'0 0.0
2014-Oct-25 10:29N 29°55' W 090°05'0 0.0
2014-Oct-25 09:27N 29°55' W 090°05'1 0.6
2014-Oct-25 08:32N 29°55' W 090°05'0 0.2
2014-Oct-25 07:33N 29°55' W 090°05'0 0.4
2014-Oct-25 06:33N 29°55' W 090°05'1 1.3
2014-Oct-25 05:31N 29°56' W 090°04'3 0.3
2014-Oct-24 20:24N 29°57' W 090°01'23 1.9
2014-Oct-24 08:16N 29°60' W 090°27'5 6.8
2014-Oct-24 07:28N 29°56' W 090°22'12 0.9
2014-Oct-23 18:33N 29°55' W 090°08'9 1.5
2014-Oct-23 12:31N 29°57' W 090°19'9 1.5
2014-Oct-23 06:33N 29°55' W 090°08'1 0.4
2014-Oct-23 04:32N 29°56' W 090°08'  
Track history (hours):
 
Tides and Currents Weather Stations Pressure Air Temp Water Temp Dewpoint Dewpoint Depression Visibility Wind Speed Wind Dir Waves Ship Positions

Josephine Anne

Owner: E.N. Bisso & Son, Inc., Metairie, LA. More information available from US FCC via Universal Licensing System and Coast Guard Vessel Documentation Center.

Last reported at 2014-Oct-25 16:32 UTC. Time now 2014-Oct-25 23:39 UTC.
Position N 29°56' W 090°04'.

Length 29 m; draft 4.3 m.

Type: Tug. MMSI: 367317270.

Date/timePositionNaut miles runAvg speedWind from/ knotsBaromVisibWave heightAir tempDewpointWater temp
2014-Oct-25 16:32N 29°56' W 090°04'1 0.7
2014-Oct-25 14:33N 29°55' W 090°05'0 0.0
2014-Oct-25 13:33N 29°55' W 090°05'0 0.0
2014-Oct-25 12:33N 29°55' W 090°05'0 0.0
2014-Oct-25 11:32N 29°55' W 090°05'0 0.0
2014-Oct-25 10:29N 29°55' W 090°05'0 0.0
2014-Oct-25 09:27N 29°55' W 090°05'1 0.6
2014-Oct-25 08:32N 29°55' W 090°05'0 0.2
2014-Oct-25 07:33N 29°55' W 090°05'0 0.4
2014-Oct-25 06:33N 29°55' W 090°05'1 1.3
2014-Oct-25 05:31N 29°56' W 090°04'3 0.3
2014-Oct-24 20:24N 29°57' W 090°01'23 1.9
2014-Oct-24 08:16N 29°60' W 090°27'5 6.8
2014-Oct-24 07:28N 29°56' W 090°22'12 0.9
2014-Oct-23 18:33N 29°55' W 090°08'9 1.5
2014-Oct-23 12:31N 29°57' W 090°19'9 1.5
2014-Oct-23 06:33N 29°55' W 090°08'1 0.4
2014-Oct-23 04:32N 29°56' W 090°08'  

Dump ship's entire track history